Time;durP1;ratioP1;P1;durP2;ratioP2;P2;SDS_P1;SDS_P2;PMS_P1;PMS_P2;Temp;Humidity;BMP_temperature;BMP_pressure;BME280_temperature;BME280_humidity;BME280_pressure;Samples;Min_cycle;Max_cycle;Signal;HPM_P1;HPM_P2
2024/02/26 00:00:48;;;;;;;1.30;1.20;;;;;;;;;;5073798;28;20032;-62
2024/02/26 00:03:14;;;;;;;1.73;1.15;;;;;;;;;;5077533;28;20060;-62
2024/02/26 00:05:40;;;;;;;2.28;0.98;;;;;;;;;;5070492;28;20519;-60
2024/02/26 00:08:06;;;;;;;1.02;0.90;;;;;;;;;;5076248;28;20032;-61
2024/02/26 00:10:32;;;;;;;2.95;1.20;;;;;;;;;;5069023;28;20028;-61
2024/02/26 00:12:58;;;;;;;1.55;1.02;;;;;;;;;;5051545;28;20390;-61
2024/02/26 00:15:25;;;;;;;2.10;1.13;;;;;;;;;;5070892;28;20047;-61
2024/02/26 00:17:51;;;;;;;1.80;1.30;;;;;;;;;;5069979;28;20040;-62
2024/02/26 00:20:20;;;;;;;1.48;1.05;;;;;;;;;;5074849;28;20033;-61
2024/02/26 00:22:46;;;;;;;3.58;1.25;;;;;;;;;;5069925;28;20504;-61
2024/02/26 00:25:12;;;;;;;1.15;1.02;;;;;;;;;;5070589;28;20047;-61
2024/02/26 00:27:40;;;;;;;1.38;0.90;;;;;;;;;;5066267;28;20044;-61
2024/02/26 00:30:07;;;;;;;1.20;1.10;;;;;;;;;;5069584;28;20044;-61
2024/02/26 00:32:33;;;;;;;2.17;1.40;;;;;;;;;;5069215;28;20052;-62
2024/02/26 00:34:59;;;;;;;1.13;1.02;;;;;;;;;;5070265;28;20044;-61
2024/02/26 00:37:25;;;;;;;1.52;0.82;;;;;;;;;;5075849;28;20044;-61
2024/02/26 00:39:53;;;;;;;1.35;1.13;;;;;;;;;;5064509;28;20496;-62
2024/02/26 00:42:19;;;;;;;1.35;1.10;;;;;;;;;;5068344;28;20048;-62
2024/02/26 00:44:45;;;;;;;1.60;0.90;;;;;;;;;;5069398;28;20402;-63
2024/02/26 00:47:11;;;;;;;1.30;1.17;;;;;;;;;;5069351;28;20052;-63
2024/02/26 00:49:37;;;;;;;1.30;1.00;;;;;;;;;;5073170;28;20044;-62
2024/02/26 00:52:04;;;;;;;1.38;1.00;;;;;;;;;;5071210;28;20044;-62
2024/02/26 00:54:30;;;;;;;1.20;1.10;;;;;;;;;;5075633;28;20045;-61
2024/02/26 00:56:56;;;;;;;1.23;1.10;;;;;;;;;;5076120;28;20393;-62
2024/02/26 00:59:22;;;;;;;1.58;1.00;;;;;;;;;;5073224;28;20143;-62
2024/02/26 01:01:48;;;;;;;1.17;0.98;;;;;;;;;;5071163;28;20040;-62
2024/02/26 01:04:14;;;;;;;1.35;1.08;;;;;;;;;;5070540;28;20049;-62
2024/02/26 01:06:40;;;;;;;1.20;1.10;;;;;;;;;;5069375;28;20393;-62
2024/02/26 01:09:08;;;;;;;1.10;1.00;;;;;;;;;;5074489;28;20032;-62
2024/02/26 01:11:34;;;;;;;1.65;0.90;;;;;;;;;;5072680;28;20120;-62
2024/02/26 01:14:00;;;;;;;1.33;1.10;;;;;;;;;;5071465;28;20051;-62
2024/02/26 01:16:29;;;;;;;2.08;1.20;;;;;;;;;;5074871;28;20036;-62
2024/02/26 01:18:55;;;;;;;1.27;1.15;;;;;;;;;;5070519;28;20039;-62
2024/02/26 01:21:21;;;;;;;2.58;1.30;;;;;;;;;;5072205;28;20051;-62
2024/02/26 01:23:47;;;;;;;1.63;1.00;;;;;;;;;;5068526;28;20460;-62
2024/02/26 01:26:14;;;;;;;1.20;1.10;;;;;;;;;;5068265;28;20043;-62
2024/02/26 01:28:40;;;;;;;1.52;1.00;;;;;;;;;;5065228;28;20040;-62
2024/02/26 01:31:08;;;;;;;1.20;0.90;;;;;;;;;;5066973;28;20037;-62
2024/02/26 01:33:34;;;;;;;1.60;1.00;;;;;;;;;;5076275;28;20055;-62
2024/02/26 01:36:00;;;;;;;1.10;1.00;;;;;;;;;;5072847;28;20040;-62
2024/02/26 01:38:27;;;;;;;5.07;1.00;;;;;;;;;;5071433;28;20040;-62
2024/02/26 01:40:53;;;;;;;1.50;1.00;;;;;;;;;;5070049;28;20048;-62
2024/02/26 01:43:19;;;;;;;1.15;0.82;;;;;;;;;;5072728;28;20048;-62
2024/02/26 01:45:45;;;;;;;1.10;0.90;;;;;;;;;;5076497;28;20060;-63
2024/02/26 01:48:12;;;;;;;1.25;1.00;;;;;;;;;;5053213;28;20350;-62
2024/02/26 01:50:39;;;;;;;1.17;0.82;;;;;;;;;;5080285;28;20040;-62
2024/02/26 01:53:06;;;;;;;2.15;1.10;;;;;;;;;;5083465;28;20500;-61
2024/02/26 01:55:33;;;;;;;2.17;1.20;;;;;;;;;;5070085;28;20047;-61
2024/02/26 01:57:59;;;;;;;1.30;1.00;;;;;;;;;;5052567;28;20520;-61
2024/02/26 02:00:26;;;;;;;1.40;1.08;;;;;;;;;;5073505;28;20044;-61
2024/02/26 02:02:54;;;;;;;1.17;1.00;;;;;;;;;;5071478;28;20052;-61
2024/02/26 02:05:21;;;;;;;1.80;1.20;;;;;;;;;;5069354;28;20033;-62
2024/02/26 02:07:48;;;;;;;1.45;1.20;;;;;;;;;;5070434;28;20051;-62
2024/02/26 02:10:16;;;;;;;1.27;1.15;;;;;;;;;;5067508;28;20059;-61
2024/02/26 02:12:43;;;;;;;1.55;1.02;;;;;;;;;;5069781;28;20044;-61
2024/02/26 02:15:09;;;;;;;2.22;1.25;;;;;;;;;;5068927;28;20047;-62
2024/02/26 02:17:35;;;;;;;1.58;1.10;;;;;;;;;;5075404;28;20151;-62
2024/02/26 02:20:02;;;;;;;1.27;0.90;;;;;;;;;;5076012;28;20048;-62
2024/02/26 02:22:28;;;;;;;1.60;1.38;;;;;;;;;;5068563;28;20041;-61
2024/02/26 02:24:54;;;;;;;1.58;1.02;;;;;;;;;;5072007;28;20033;-62
2024/02/26 02:27:20;;;;;;;0.85;0.80;;;;;;;;;;5071724;28;20056;-61
2024/02/26 02:29:47;;;;;;;1.80;1.00;;;;;;;;;;5072246;28;20044;-61
2024/02/26 02:32:15;;;;;;;2.42;1.10;;;;;;;;;;5071357;28;20064;-61
2024/02/26 02:34:41;;;;;;;2.58;1.20;;;;;;;;;;5072982;28;20036;-62
2024/02/26 02:37:07;;;;;;;2.42;1.10;;;;;;;;;;5071418;28;20048;-62
2024/02/26 02:39:34;;;;;;;1.45;1.20;;;;;;;;;;5069279;28;20798;-61
2024/02/26 02:42:00;;;;;;;1.75;1.27;;;;;;;;;;5071046;28;20405;-62
2024/02/26 02:44:26;;;;;;;2.08;1.23;;;;;;;;;;5071510;28;20024;-62
2024/02/26 02:46:53;;;;;;;1.58;1.15;;;;;;;;;;5072584;28;20528;-64
2024/02/26 02:49:19;;;;;;;2.95;1.25;;;;;;;;;;5067580;28;20045;-61
2024/02/26 02:51:45;;;;;;;1.80;1.02;;;;;;;;;;5072343;28;20438;-61
2024/02/26 02:54:11;;;;;;;1.10;1.00;;;;;;;;;;5074260;28;20052;-61
2024/02/26 02:56:37;;;;;;;1.23;1.00;;;;;;;;;;5071621;28;20040;-62
2024/02/26 02:59:03;;;;;;;1.08;1.00;;;;;;;;;;5075943;28;20040;-62
2024/02/26 03:01:29;;;;;;;1.15;1.00;;;;;;;;;;5064837;28;20546;-62
2024/02/26 03:03:55;;;;;;;1.30;1.10;;;;;;;;;;5069830;28;20052;-62
2024/02/26 03:06:22;;;;;;;1.58;1.30;;;;;;;;;;5071156;28;20497;-62
2024/02/26 03:08:48;;;;;;;1.95;1.23;;;;;;;;;;5069605;28;20029;-62
2024/02/26 03:11:17;;;;;;;1.60;1.20;;;;;;;;;;5069642;28;20060;-61
2024/02/26 03:13:43;;;;;;;1.08;0.98;;;;;;;;;;5069727;28;20154;-62
2024/02/26 03:16:10;;;;;;;1.13;0.90;;;;;;;;;;5068256;28;20028;-62
2024/02/26 03:18:38;;;;;;;1.38;1.00;;;;;;;;;;5073412;28;20023;-62
2024/02/26 03:21:04;;;;;;;1.42;1.15;;;;;;;;;;5073640;28;20063;-62
2024/02/26 03:23:32;;;;;;;2.00;1.20;;;;;;;;;;5072124;28;20505;-61
2024/02/26 03:25:58;;;;;;;1.40;1.27;;;;;;;;;;5069491;28;20047;-62
2024/02/26 03:28:24;;;;;;;1.83;1.10;;;;;;;;;;5068805;28;20075;-62
2024/02/26 03:30:50;;;;;;;0.98;0.88;;;;;;;;;;5069495;28;20036;-62
2024/02/26 03:33:16;;;;;;;1.90;1.20;;;;;;;;;;5069862;28;20055;-61
2024/02/26 03:35:42;;;;;;;2.30;1.02;;;;;;;;;;5070296;28;20055;-63
2024/02/26 03:38:08;;;;;;;1.48;1.10;;;;;;;;;;5069370;28;20056;-62
2024/02/26 03:40:35;;;;;;;2.65;1.25;;;;;;;;;;5069880;28;20032;-64
2024/02/26 03:43:02;;;;;;;1.55;1.10;;;;;;;;;;5072511;28;20032;-62
2024/02/26 03:45:28;;;;;;;1.35;1.10;;;;;;;;;;5068543;28;20028;-63
2024/02/26 03:47:54;;;;;;;2.75;1.10;;;;;;;;;;5067168;28;20036;-62
2024/02/26 03:50:21;;;;;;;1.52;1.10;;;;;;;;;;5071249;28;20036;-62
2024/02/26 03:52:47;;;;;;;1.10;1.00;;;;;;;;;;5069844;28;20028;-63
2024/02/26 03:55:13;;;;;;;2.65;1.30;;;;;;;;;;5068763;28;20052;-62
2024/02/26 03:57:40;;;;;;;2.55;1.58;;;;;;;;;;5068307;28;20028;-63
2024/02/26 04:00:06;;;;;;;1.17;1.08;;;;;;;;;;5068573;28;20046;-62
2024/02/26 04:02:36;;;;;;;2.72;1.20;;;;;;;;;;5068860;28;20029;-63
2024/02/26 04:05:03;;;;;;;2.30;1.10;;;;;;;;;;5073571;28;20051;-62
2024/02/26 04:07:29;;;;;;;2.00;1.40;;;;;;;;;;5065337;28;20044;-62
2024/02/26 04:09:55;;;;;;;1.85;1.27;;;;;;;;;;5072924;28;20044;-62
2024/02/26 04:12:21;;;;;;;2.47;1.20;;;;;;;;;;5067622;28;20441;-62
2024/02/26 04:14:47;;;;;;;3.83;1.55;;;;;;;;;;5066897;28;20374;-61
2024/02/26 04:17:13;;;;;;;2.13;1.33;;;;;;;;;;5066874;28;20048;-61
2024/02/26 04:19:39;;;;;;;1.30;1.08;;;;;;;;;;5069972;28;20043;-62
2024/02/26 04:22:06;;;;;;;4.97;3.05;;;;;;;;;;5070712;28;20047;-63
2024/02/26 04:24:32;;;;;;;8.82;4.65;;;;;;;;;;5074554;28;20508;-63
2024/02/26 04:26:58;;;;;;;10.63;6.00;;;;;;;;;;5068578;28;20465;-62
2024/02/26 04:29:24;;;;;;;8.20;4.20;;;;;;;;;;5050390;28;20130;-62
2024/02/26 04:31:50;;;;;;;1.90;1.30;;;;;;;;;;5063469;28;20033;-62
2024/02/26 04:34:16;;;;;;;1.67;0.93;;;;;;;;;;5070811;28;20040;-63
2024/02/26 04:36:42;;;;;;;3.55;0.90;;;;;;;;;;5070500;28;20044;-62
2024/02/26 04:39:10;;;;;;;1.10;1.00;;;;;;;;;;5066078;28;20055;-61
2024/02/26 04:41:36;;;;;;;1.83;1.17;;;;;;;;;;5066487;28;20040;-62
2024/02/26 04:44:02;;;;;;;1.20;1.08;;;;;;;;;;5074543;28;20032;-62
2024/02/26 04:46:28;;;;;;;1.00;0.90;;;;;;;;;;5068943;28;20040;-62
2024/02/26 04:48:54;;;;;;;1.00;0.90;;;;;;;;;;5067540;28;20052;-62
2024/02/26 04:51:20;;;;;;;1.85;1.20;;;;;;;;;;5068841;28;20412;-62
2024/02/26 04:53:46;;;;;;;1.38;1.27;;;;;;;;;;5067876;28;20036;-62
2024/02/26 04:56:12;;;;;;;2.47;1.50;;;;;;;;;;5066948;28;20039;-62
2024/02/26 04:58:38;;;;;;;3.63;2.20;;;;;;;;;;5067381;28;20408;-62
2024/02/26 05:01:04;;;;;;;2.13;1.50;;;;;;;;;;5069215;28;20420;-62
2024/02/26 05:03:30;;;;;;;1.67;1.38;;;;;;;;;;5076791;28;20048;-61
2024/02/26 05:05:57;;;;;;;1.42;1.10;;;;;;;;;;5070051;28;20032;-61
2024/02/26 05:08:24;;;;;;;1.48;1.15;;;;;;;;;;5072820;28;20040;-61
2024/02/26 05:10:50;;;;;;;1.10;1.00;;;;;;;;;;5072118;28;20036;-62
2024/02/26 05:13:17;;;;;;;1.65;1.30;;;;;;;;;;5071585;28;20060;-62
2024/02/26 05:15:46;;;;;;;2.25;1.40;;;;;;;;;;5073279;28;20041;-61
2024/02/26 05:18:12;;;;;;;1.80;1.40;;;;;;;;;;5079531;28;20063;-64
2024/02/26 05:20:38;;;;;;;1.65;1.27;;;;;;;;;;5072953;28;20287;-63
2024/02/26 05:23:05;;;;;;;5.43;2.13;;;;;;;;;;5073917;28;20040;-62
2024/02/26 05:25:31;;;;;;;10.13;4.32;;;;;;;;;;5073173;28;20036;-63
2024/02/26 05:27:57;;;;;;;6.55;2.75;;;;;;;;;;5048143;28;20123;-62
2024/02/26 05:30:23;;;;;;;4.78;1.95;;;;;;;;;;5071856;28;20511;-62
2024/02/26 05:32:49;;;;;;;2.38;1.23;;;;;;;;;;5074363;28;20032;-63
2024/02/26 05:35:16;;;;;;;1.67;1.20;;;;;;;;;;5074138;28;20682;-63
2024/02/26 05:37:42;;;;;;;1.50;1.40;;;;;;;;;;5074498;28;20528;-63
2024/02/26 05:40:08;;;;;;;1.83;1.38;;;;;;;;;;5070712;28;20034;-62
2024/02/26 05:42:34;;;;;;;1.50;1.30;;;;;;;;;;5069741;28;20040;-62
2024/02/26 05:45:05;;;;;;;2.58;1.38;;;;;;;;;;5073212;28;20039;-63
2024/02/26 05:47:35;;;;;;;1.48;1.30;;;;;;;;;;5073844;28;20040;-63
2024/02/26 05:50:01;;;;;;;2.83;1.50;;;;;;;;;;5071650;28;20493;-62
2024/02/26 05:52:31;;;;;;;2.95;1.70;;;;;;;;;;5076140;28;20040;-62
2024/02/26 05:54:57;;;;;;;2.78;2.00;;;;;;;;;;5070636;28;20028;-61
2024/02/26 05:57:24;;;;;;;2.58;2.38;;;;;;;;;;5071226;28;20063;-62
2024/02/26 05:59:50;;;;;;;1.77;1.60;;;;;;;;;;5076537;28;20037;-62
2024/02/26 06:02:16;;;;;;;2.58;1.55;;;;;;;;;;5070762;28;20056;-62
2024/02/26 06:04:42;;;;;;;3.33;1.80;;;;;;;;;;5068135;28;20528;-61
2024/02/26 06:07:08;;;;;;;2.92;1.95;;;;;;;;;;5069002;28;20040;-60
2024/02/26 06:09:35;;;;;;;2.83;2.03;;;;;;;;;;5071088;28;20044;-61
2024/02/26 06:12:01;;;;;;;4.65;2.33;;;;;;;;;;5072362;28;20401;-59
2024/02/26 06:14:27;;;;;;;3.53;2.55;;;;;;;;;;5078705;28;20134;-60
2024/02/26 06:16:53;;;;;;;4.80;3.25;;;;;;;;;;5072606;28;20041;-59
2024/02/26 06:19:19;;;;;;;6.00;3.53;;;;;;;;;;5070491;28;20111;-58
2024/02/26 06:21:45;;;;;;;4.63;2.90;;;;;;;;;;5070550;28;20028;-58
2024/02/26 06:24:11;;;;;;;3.33;2.72;;;;;;;;;;5072222;28;20051;-59
2024/02/26 06:26:37;;;;;;;3.88;2.40;;;;;;;;;;5076079;28;20386;-59
2024/02/26 06:29:03;;;;;;;4.10;2.38;;;;;;;;;;5074135;28;20055;-58
2024/02/26 06:31:29;;;;;;;3.85;2.40;;;;;;;;;;5069836;28;20043;-59
2024/02/26 06:33:56;;;;;;;3.50;2.10;;;;;;;;;;5073502;28;21130;-59
2024/02/26 06:36:22;;;;;;;3.35;2.33;;;;;;;;;;5075290;28;20497;-59
2024/02/26 06:38:49;;;;;;;3.70;1.80;;;;;;;;;;5068690;28;20044;-58
2024/02/26 06:41:15;;;;;;;3.20;1.38;;;;;;;;;;5067375;28;20060;-60
2024/02/26 06:43:41;;;;;;;3.25;1.35;;;;;;;;;;5073717;28;20043;-59
2024/02/26 06:46:07;;;;;;;1.42;0.98;;;;;;;;;;5073794;28;20037;-59
2024/02/26 06:48:33;;;;;;;2.22;1.58;;;;;;;;;;5071532;28;20408;-59
2024/02/26 06:50:59;;;;;;;2.72;1.30;;;;;;;;;;5075025;28;20134;-58
2024/02/26 06:53:25;;;;;;;2.58;1.75;;;;;;;;;;5069661;28;20043;-59
2024/02/26 06:55:51;;;;;;;4.85;1.80;;;;;;;;;;5071101;28;20393;-59
2024/02/26 06:58:17;;;;;;;2.72;2.30;;;;;;;;;;5069105;28;20147;-59
2024/02/26 07:00:44;;;;;;;9.02;6.75;;;;;;;;;;5069231;28;20040;-58
2024/02/26 07:03:10;;;;;;;8.65;5.60;;;;;;;;;;5072630;28;20033;-59
2024/02/26 07:05:36;;;;;;;3.63;3.25;;;;;;;;;;5065940;28;20051;-59
2024/02/26 07:08:02;;;;;;;3.67;2.63;;;;;;;;;;5095552;22;20047;-66
2024/02/26 07:10:28;;;;;;;5.03;3.67;;;;;;;;;;5067668;28;20071;-64
2024/02/26 07:12:55;;;;;;;8.80;4.20;;;;;;;;;;5083594;28;20048;-65
2024/02/26 07:15:21;;;;;;;5.57;3.45;;;;;;;;;;5084946;28;20036;-65
2024/02/26 07:17:48;;;;;;;3.72;2.90;;;;;;;;;;5085154;28;20040;-65
2024/02/26 07:20:15;;;;;;;4.55;2.90;;;;;;;;;;5080768;28;20052;-66
2024/02/26 07:22:42;;;;;;;4.50;2.97;;;;;;;;;;5085685;28;20031;-65
2024/02/26 07:25:11;;;;;;;5.10;3.22;;;;;;;;;;5073495;28;20059;-65
2024/02/26 07:27:38;;;;;;;4.63;2.55;;;;;;;;;;5085581;28;20031;-65
2024/02/26 07:30:04;;;;;;;5.00;2.40;;;;;;;;;;5080653;28;20517;-67
2024/02/26 07:32:31;;;;;;;3.88;2.40;;;;;;;;;;5086479;28;20039;-66
2024/02/26 07:34:57;;;;;;;3.00;2.05;;;;;;;;;;5081020;28;20051;-65
2024/02/26 07:37:23;;;;;;;4.38;2.90;;;;;;;;;;5072022;28;20489;-66
2024/02/26 07:39:49;;;;;;;5.53;3.60;;;;;;;;;;5072296;28;20040;-65
2024/02/26 07:42:15;;;;;;;5.45;3.40;;;;;;;;;;5078681;28;20052;-66
2024/02/26 07:44:42;;;;;;;6.40;3.92;;;;;;;;;;5080974;28;20500;-66
2024/02/26 07:47:09;;;;;;;6.57;3.90;;;;;;;;;;5077377;28;20028;-66
2024/02/26 07:49:35;;;;;;;6.38;3.65;;;;;;;;;;5078622;28;20052;-66
2024/02/26 07:52:02;;;;;;;9.13;4.63;;;;;;;;;;5080661;28;20066;-66
2024/02/26 07:54:28;;;;;;;7.13;5.03;;;;;;;;;;5082214;28;20032;-66
2024/02/26 07:56:54;;;;;;;7.00;4.53;;;;;;;;;;5075397;28;20040;-66
2024/02/26 07:59:20;;;;;;;7.25;4.70;;;;;;;;;;5076087;28;20493;-66
2024/02/26 08:01:50;;;;;;;16.23;11.75;;;;;;;;;;5084643;28;20028;-66
2024/02/26 08:04:17;;;;;;;12.70;8.98;;;;;;;;;;5080449;28;20049;-66
2024/02/26 08:06:43;;;;;;;9.68;5.75;;;;;;;;;;5085804;28;20048;-66
2024/02/26 08:09:09;;;;;;;9.02;5.70;;;;;;;;;;5079432;28;20044;-65
2024/02/26 08:11:35;;;;;;;9.70;5.35;;;;;;;;;;5089225;28;20533;-66
2024/02/26 08:14:01;;;;;;;7.63;4.32;;;;;;;;;;5082247;28;20496;-66
2024/02/26 08:16:28;;;;;;;8.48;4.35;;;;;;;;;;5078882;28;20032;-66
2024/02/26 08:18:55;;;;;;;5.57;3.90;;;;;;;;;;5078101;28;20051;-66
2024/02/26 08:21:21;;;;;;;6.88;4.60;;;;;;;;;;5077499;28;20056;-66
2024/02/26 08:23:47;;;;;;;5.75;3.95;;;;;;;;;;5077262;28;20044;-66
2024/02/26 08:26:13;;;;;;;9.45;5.28;;;;;;;;;;5077305;28;20051;-66
2024/02/26 08:28:39;;;;;;;10.20;6.47;;;;;;;;;;5076510;28;20031;-65
2024/02/26 08:31:06;;;;;;;16.05;8.75;;;;;;;;;;5078697;28;20071;-65
2024/02/26 08:33:34;;;;;;;14.93;9.40;;;;;;;;;;5084481;28;20028;-66
2024/02/26 08:36:05;;;;;;;21.02;13.05;;;;;;;;;;5072238;28;20166;-66
2024/02/26 08:38:31;;;;;;;13.10;8.68;;;;;;;;;;5072357;28;20029;-67
2024/02/26 08:40:57;;;;;;;8.05;5.15;;;;;;;;;;5076849;28;20046;-66
2024/02/26 08:43:23;;;;;;;6.13;4.13;;;;;;;;;;5076921;28;20505;-66
2024/02/26 08:45:49;;;;;;;6.95;4.90;;;;;;;;;;5080953;28;20032;-66
2024/02/26 08:48:15;;;;;;;7.28;4.68;;;;;;;;;;5082608;28;20032;-66
2024/02/26 08:50:41;;;;;;;6.93;5.28;;;;;;;;;;5082913;28;20496;-67
2024/02/26 08:53:07;;;;;;;8.40;5.72;;;;;;;;;;5085167;28;20028;-65
2024/02/26 08:55:33;;;;;;;9.18;5.68;;;;;;;;;;5082326;28;20048;-66
2024/02/26 08:57:59;;;;;;;10.43;6.20;;;;;;;;;;5085420;28;20040;-66
2024/02/26 09:00:25;;;;;;;9.32;5.60;;;;;;;;;;5086700;28;20536;-66
2024/02/26 09:02:52;;;;;;;9.13;5.53;;;;;;;;;;5084026;28;20412;-66
2024/02/26 09:05:18;;;;;;;10.32;5.57;;;;;;;;;;5078241;28;20049;-66
2024/02/26 09:07:44;;;;;;;8.23;5.57;;;;;;;;;;5083854;28;20047;-66
2024/02/26 09:10:10;;;;;;;8.65;5.68;;;;;;;;;;5085475;28;21024;-66
2024/02/26 09:12:37;;;;;;;9.55;5.93;;;;;;;;;;5085421;28;20438;-66
2024/02/26 09:15:04;;;;;;;9.15;6.32;;;;;;;;;;5084399;28;20055;-66
2024/02/26 09:17:30;;;;;;;18.27;8.65;;;;;;;;;;5089005;28;20016;-66
2024/02/26 09:19:56;;;;;;;14.90;8.65;;;;;;;;;;5082922;28;20040;-66
2024/02/26 09:22:22;;;;;;;15.13;7.45;;;;;;;;;;5085915;28;20055;-66
2024/02/26 09:24:51;;;;;;;15.50;8.05;;;;;;;;;;5087774;28;20027;-66
2024/02/26 09:27:17;;;;;;;16.95;7.47;;;;;;;;;;5087278;28;20047;-66
2024/02/26 09:29:43;;;;;;;13.15;7.40;;;;;;;;;;5079737;28;20028;-66
2024/02/26 09:32:09;;;;;;;11.05;5.95;;;;;;;;;;5082963;28;20044;-66
2024/02/26 09:34:36;;;;;;;7.53;4.40;;;;;;;;;;5082339;28;20036;-66
2024/02/26 09:37:02;;;;;;;9.50;3.83;;;;;;;;;;5083292;28;20040;-66
2024/02/26 09:39:28;;;;;;;7.97;4.20;;;;;;;;;;5079984;28;20501;-66
2024/02/26 09:41:56;;;;;;;7.22;3.63;;;;;;;;;;5081380;28;20046;-66
2024/02/26 09:44:24;;;;;;;4.50;3.30;;;;;;;;;;5085520;28;20048;-66
2024/02/26 09:46:52;;;;;;;4.15;3.08;;;;;;;;;;5079630;28;20040;-66
2024/02/26 09:49:23;;;;;;;5.75;2.97;;;;;;;;;;5078819;28;20047;-66
2024/02/26 09:51:50;;;;;;;4.78;2.88;;;;;;;;;;5082533;28;20044;-65
2024/02/26 09:54:17;;;;;;;7.60;3.25;;;;;;;;;;5077617;28;20497;-66
2024/02/26 09:56:49;;;;;;;6.05;2.70;;;;;;;;;;5083650;28;20040;-65
2024/02/26 09:59:17;;;;;;;10.02;3.55;;;;;;;;;;5082727;28;20047;-66
2024/02/26 10:01:46;;;;;;;4.72;3.00;;;;;;;;;;5085304;28;20059;-66
2024/02/26 10:04:12;;;;;;;6.80;3.45;;;;;;;;;;5082388;28;20052;-66
2024/02/26 10:06:39;;;;;;;6.30;3.17;;;;;;;;;;5083788;28;20028;-66
2024/02/26 10:09:09;;;;;;;5.97;2.97;;;;;;;;;;5084674;28;20386;-66
2024/02/26 10:11:37;;;;;;;5.88;3.10;;;;;;;;;;5077691;28;20036;-66
2024/02/26 10:14:03;;;;;;;8.80;4.10;;;;;;;;;;5082486;28;20111;-66
2024/02/26 10:16:30;;;;;;;5.03;3.00;;;;;;;;;;5081881;28;20040;-68
2024/02/26 10:18:56;;;;;;;6.22;3.80;;;;;;;;;;5075351;28;20032;-66
2024/02/26 10:21:23;;;;;;;6.13;3.85;;;;;;;;;;5082106;28;20046;-65
2024/02/26 10:23:50;;;;;;;6.35;4.00;;;;;;;;;;5082516;28;20040;-66
2024/02/26 10:26:16;;;;;;;6.22;3.30;;;;;;;;;;5084546;28;20036;-66
2024/02/26 10:28:44;;;;;;;4.93;2.95;;;;;;;;;;5086265;28;20393;-67
2024/02/26 10:31:11;;;;;;;5.97;3.13;;;;;;;;;;5078606;28;20044;-66
2024/02/26 10:33:38;;;;;;;5.13;3.40;;;;;;;;;;5081670;28;20047;-66
2024/02/26 10:36:05;;;;;;;4.78;3.22;;;;;;;;;;5080054;28;20425;-67
2024/02/26 10:38:36;;;;;;;7.32;4.15;;;;;;;;;;5079503;28;20029;-67
2024/02/26 10:41:04;;;;;;;8.35;4.18;;;;;;;;;;5081073;28;20042;-66
2024/02/26 10:43:30;;;;;;;5.13;3.85;;;;;;;;;;5078592;28;20409;-66
2024/02/26 10:45:57;;;;;;;5.43;3.47;;;;;;;;;;5082925;28;20048;-66
2024/02/26 10:48:23;;;;;;;5.38;3.20;;;;;;;;;;5081740;28;20040;-66
2024/02/26 10:50:50;;;;;;;5.30;3.00;;;;;;;;;;5083046;28;20047;-66
2024/02/26 10:53:19;;;;;;;4.78;3.13;;;;;;;;;;5082906;28;20067;-66
2024/02/26 10:55:58;;;;;;;4.65;2.90;;;;;;;;;;5079946;28;20029;-66
2024/02/26 10:58:25;;;;;;;6.10;2.90;;;;;;;;;;5081392;28;20045;-65
2024/02/26 11:00:52;;;;;;;4.85;2.72;;;;;;;;;;5083242;28;20059;-66
2024/02/26 11:03:20;;;;;;;4.32;2.70;;;;;;;;;;5077511;28;20071;-65
2024/02/26 11:05:48;;;;;;;5.72;3.28;;;;;;;;;;5083981;28;20047;-66
2024/02/26 11:08:18;;;;;;;4.43;2.42;;;;;;;;;;5078932;28;20571;-65
2024/02/26 11:10:48;;;;;;;9.05;3.45;;;;;;;;;;5077808;28;20051;-66
2024/02/26 11:13:16;;;;;;;2.72;1.83;;;;;;;;;;5079933;28;20047;-69
2024/02/26 11:15:43;;;;;;;4.68;2.22;;;;;;;;;;5079427;28;20028;-66
2024/02/26 11:18:10;;;;;;;5.15;2.30;;;;;;;;;;5083202;28;20496;-66
2024/02/26 11:20:39;;;;;;;2.67;2.05;;;;;;;;;;5079149;28;20374;-66
2024/02/26 11:23:07;;;;;;;4.47;2.60;;;;;;;;;;5074123;28;20044;-65
2024/02/26 11:25:33;;;;;;;5.32;2.33;;;;;;;;;;5078489;28;20052;-67
2024/02/26 11:28:04;;;;;;;3.65;2.17;;;;;;;;;;5084414;28;20044;-66
2024/02/26 11:30:33;;;;;;;5.05;2.80;;;;;;;;;;5080269;28;20055;-67
2024/02/26 11:32:59;;;;;;;6.55;2.45;;;;;;;;;;5075602;28;20049;-66
2024/02/26 11:35:25;;;;;;;4.50;2.10;;;;;;;;;;5075735;28;20047;-66
2024/02/26 11:37:54;;;;;;;2.97;2.30;;;;;;;;;;5081191;28;20028;-66
2024/02/26 11:40:20;;;;;;;2.90;2.50;;;;;;;;;;5073295;28;20055;-66
2024/02/26 11:42:47;;;;;;;6.03;2.80;;;;;;;;;;5073874;28;20028;-66
2024/02/26 11:45:47;;;;;;;4.03;2.53;;;;;;;;;;5078292;28;20039;-67
2024/02/26 11:48:14;;;;;;;5.95;2.70;;;;;;;;;;5068206;28;20052;-64
2024/02/26 11:50:42;;;;;;;5.25;2.92;;;;;;;;;;5073894;28;20040;-66
2024/02/26 11:53:34;;;;;;;5.20;2.80;;;;;;;;;;5079071;28;20516;-64
2024/02/26 11:56:22;;;;;;;3.35;2.65;;;;;;;;;;5079850;28;20511;-66
2024/02/26 11:58:53;;;;;;;4.28;2.97;;;;;;;;;;5080170;28;20428;-67
2024/02/26 12:01:39;;;;;;;4.95;2.85;;;;;;;;;;5076144;28;20033;-66
2024/02/26 12:04:26;;;;;;;4.35;3.00;;;;;;;;;;5082036;28;20037;-66
2024/02/26 12:06:56;;;;;;;4.13;2.65;;;;;;;;;;5081341;28;20032;-67
2024/02/26 12:09:36;;;;;;;3.17;2.47;;;;;;;;;;5077687;28;20040;-66
2024/02/26 12:12:06;;;;;;;;;;;;;;;;;;5080481;28;20404;-67
2024/02/26 12:14:39;;;;;;;3.78;2.33;;;;;;;;;;5074164;28;19928;-66
2024/02/26 12:17:08;;;;;;;3.30;2.00;;;;;;;;;;5079669;28;20525;-65
2024/02/26 12:19:36;;;;;;;4.32;2.10;;;;;;;;;;5071653;28;20402;-66
2024/02/26 12:22:02;;;;;;;3.80;2.40;;;;;;;;;;5084287;28;20032;-65
2024/02/26 12:24:29;;;;;;;3.47;2.17;;;;;;;;;;5085484;28;20051;-66
2024/02/26 12:26:55;;;;;;;4.88;2.05;;;;;;;;;;5081005;28;20941;-66
2024/02/26 12:29:21;;;;;;;2.47;2.00;;;;;;;;;;5075044;28;20051;-66
2024/02/26 12:31:48;;;;;;;33.97;8.25;;;;;;;;;;5073923;28;20532;-68
2024/02/26 12:34:16;;;;;;;5.70;2.83;;;;;;;;;;5083714;28;20520;-66
2024/02/26 12:36:42;;;;;;;3.80;2.13;;;;;;;;;;5078095;28;20048;-66
2024/02/26 12:39:09;;;;;;;3.97;2.20;;;;;;;;;;5077413;28;20028;-66
2024/02/26 12:41:36;;;;;;;2.83;2.08;;;;;;;;;;5084780;28;20036;-66
2024/02/26 12:44:02;;;;;;;3.30;2.10;;;;;;;;;;5081431;28;20063;-67
2024/02/26 12:46:28;;;;;;;2.65;1.98;;;;;;;;;;5076158;28;20492;-67
2024/02/26 12:48:58;;;;;;;2.42;1.73;;;;;;;;;;5078825;28;20059;-66
2024/02/26 12:51:26;;;;;;;3.92;1.80;;;;;;;;;;5077628;28;20052;-67
2024/02/26 12:53:55;;;;;;;3.00;1.40;;;;;;;;;;5082623;28;20725;-67
2024/02/26 12:56:23;;;;;;;2.60;1.60;;;;;;;;;;5081497;28;20386;-67
2024/02/26 12:58:50;;;;;;;4.55;1.70;;;;;;;;;;5082327;28;20418;-66
2024/02/26 13:01:19;;;;;;;3.00;1.70;;;;;;;;;;5080668;28;20036;-66
2024/02/26 13:03:46;;;;;;;1.83;1.27;;;;;;;;;;5076597;28;20040;-65
2024/02/26 13:06:12;;;;;;;3.67;1.40;;;;;;;;;;5078344;28;20242;-67
2024/02/26 13:08:39;;;;;;;4.25;1.60;;;;;;;;;;5081397;28;20027;-66
2024/02/26 13:11:05;;;;;;;2.40;1.50;;;;;;;;;;5056292;22;20042;-60
2024/02/26 13:13:31;;;;;;;2.08;1.73;;;;;;;;;;4996866;28;20038;-60
2024/02/26 13:16:08;;;;;;;4.18;1.70;;;;;;;;;;5016498;28;20037;-60
2024/02/26 13:18:36;;;;;;;3.47;1.90;;;;;;;;;;5012682;28;20046;-60
2024/02/26 13:21:15;;;;;;;4.05;1.60;;;;;;;;;;5012796;28;20042;-59
2024/02/26 13:23:42;;;;;;;2.53;1.75;;;;;;;;;;5008933;28;20041;-60
2024/02/26 13:26:09;;;;;;;2.80;1.52;;;;;;;;;;5008764;28;20076;-60
2024/02/26 13:28:35;;;;;;;1.70;1.10;;;;;;;;;;5016237;28;20053;-60
2024/02/26 13:31:02;;;;;;;1.58;1.23;;;;;;;;;;5015096;28;20410;-61
2024/02/26 13:33:29;;;;;;;1.40;1.30;;;;;;;;;;5027020;28;20041;-60
2024/02/26 13:35:56;;;;;;;1.40;1.20;;;;;;;;;;5013006;28;20038;-60
2024/02/26 13:38:22;;;;;;;1.73;1.40;;;;;;;;;;5027947;28;20038;-61
2024/02/26 13:40:50;;;;;;;1.58;1.20;;;;;;;;;;5011268;28;20069;-60
2024/02/26 13:43:16;;;;;;;3.15;1.70;;;;;;;;;;5012522;28;20506;-60
2024/02/26 13:45:42;;;;;;;2.45;0.52;;;;;;;;;;5013610;28;20060;-60
2024/02/26 13:48:12;;;;;;;2.33;0.70;;;;;;;;;;5012592;28;20049;-60
2024/02/26 13:50:39;;;;;;;1.58;0.52;;;;;;;;;;5013587;28;20372;-60
2024/02/26 13:53:05;;;;;;;1.33;0.60;;;;;;;;;;5013435;28;20033;-61
2024/02/26 13:55:32;;;;;;;1.13;0.60;;;;;;;;;;5005679;28;20050;-60
2024/02/26 13:58:01;;;;;;;2.08;0.95;;;;;;;;;;5016177;28;20072;-60
2024/02/26 14:00:29;;;;;;;3.00;1.60;;;;;;;;;;5012984;28;20045;-61
2024/02/26 14:02:55;;;;;;;3.33;2.22;;;;;;;;;;5016163;28;20422;-60
2024/02/26 14:05:21;;;;;;;4.22;1.60;;;;;;;;;;5020280;28;20044;-60
2024/02/26 14:07:47;;;;;;;2.50;1.83;;;;;;;;;;5015782;28;20046;-61
2024/02/26 14:10:13;;;;;;;3.58;1.83;;;;;;;;;;5016385;28;20054;-61
2024/02/26 14:12:39;;;;;;;5.68;3.83;;;;;;;;;;5015439;28;20048;-60
2024/02/26 14:15:07;;;;;;;6.97;3.50;;;;;;;;;;5018122;28;20060;-60
2024/02/26 14:17:33;;;;;;;14.55;5.47;;;;;;;;;;5001554;28;20037;-60
2024/02/26 14:20:00;;;;;;;11.43;4.90;;;;;;;;;;5013108;28;20046;-62
2024/02/26 14:22:30;;;;;;;3.03;1.75;;;;;;;;;;5016397;28;20076;-60
2024/02/26 14:24:57;;;;;;;3.42;1.98;;;;;;;;;;5013124;28;20391;-60
2024/02/26 14:27:23;;;;;;;4.63;2.15;;;;;;;;;;5011697;28;20419;-60
2024/02/26 14:29:49;;;;;;;6.82;3.53;;;;;;;;;;5011880;28;20041;-60
2024/02/26 14:32:16;;;;;;;16.90;6.78;;;;;;;;;;5012459;28;20041;-60
2024/02/26 14:34:42;;;;;;;8.18;3.85;;;;;;;;;;5011203;28;20037;-61
2024/02/26 14:37:08;;;;;;;11.32;4.93;;;;;;;;;;5008804;28;20050;-61
2024/02/26 14:39:34;;;;;;;9.13;4.68;;;;;;;;;;5016227;28;20045;-60
2024/02/26 14:42:01;;;;;;;3.40;2.13;;;;;;;;;;5016276;28;20052;-60